Time;durP1;ratioP1;P1;durP2;ratioP2;P2;SDS_P1;SDS_P2;PMS_P1;PMS_P2;Temp;Humidity;BMP_temperature;BMP_pressure;BME280_temperature;BME280_humidity;BME280_pressure;Samples;Min_cycle;Max_cycle;Signal;HPM_P1;HPM_P2
2024/04/23 00:01:10;;;;;;;39.03;22.53;;;;;;;;;;765734;180;895764;-64
2024/04/23 00:03:35;;;;;;;40.10;23.50;;;;;;;;;;771233;181;917846;-64
2024/04/23 00:06:01;;;;;;;34.03;20.90;;;;;;;;;;771352;180;817834;-64
2024/04/23 00:08:27;;;;;;;44.47;23.00;;;;;;;;;;770223;180;843672;-64
2024/04/23 00:10:53;;;;;;;35.50;21.97;;;;;;;;;;771400;180;626758;-65
2024/04/23 00:15:00;;;;;;;34.93;24.33;;;;;;;;;;778591;173;918704;-65
2024/04/23 00:17:26;;;;;;;32.40;22.97;;;;;;;;;;767683;179;811047;-64
2024/04/23 00:19:52;;;;;;;42.45;23.30;;;;;;;;;;777625;179;919914;-64
2024/04/23 00:22:18;;;;;;;40.20;24.90;;;;;;;;;;773127;179;812552;-64
2024/04/23 00:24:44;;;;;;;38.20;22.98;;;;;;;;;;772263;178;918785;-64
2024/04/23 00:27:10;;;;;;;40.57;23.80;;;;;;;;;;775933;179;828225;-64
2024/04/23 00:29:36;;;;;;;37.67;22.85;;;;;;;;;;777028;178;741547;-63
2024/04/23 00:32:01;;;;;;;41.03;26.07;;;;;;;;;;775649;179;911965;-64
2024/04/23 00:34:27;;;;;;;38.53;24.97;;;;;;;;;;774002;179;918575;-64
2024/04/23 00:36:53;;;;;;;41.17;22.90;;;;;;;;;;777855;179;820975;-65
2024/04/23 00:39:19;;;;;;;41.97;25.43;;;;;;;;;;777730;179;917571;-64
2024/04/23 00:41:45;;;;;;;32.83;21.60;;;;;;;;;;775504;179;917437;-63
2024/04/23 00:44:11;;;;;;;40.13;24.00;;;;;;;;;;780539;179;628455;-62
2024/04/23 00:46:36;;;;;;;37.87;22.37;;;;;;;;;;772243;179;917462;-62
2024/04/23 00:49:02;;;;;;;37.70;25.05;;;;;;;;;;775261;179;718140;-62
2024/04/23 00:51:28;;;;;;;41.03;20.93;;;;;;;;;;773235;179;919381;-61
2024/04/23 00:53:54;;;;;;;43.23;24.90;;;;;;;;;;773952;180;710363;-61
2024/04/23 00:56:21;;;;;;;45.33;24.70;;;;;;;;;;772654;177;901653;-61
2024/04/23 00:58:46;;;;;;;44.43;23.03;;;;;;;;;;776632;177;917511;-62
2024/04/23 01:01:11;;;;;;;37.00;21.40;;;;;;;;;;780166;179;705167;-61
2024/04/23 01:03:37;;;;;;;37.80;24.77;;;;;;;;;;776556;179;915531;-62
2024/04/23 01:06:03;;;;;;;42.90;25.33;;;;;;;;;;770818;179;820121;-61
2024/04/23 01:08:29;;;;;;;40.23;24.30;;;;;;;;;;775450;178;916160;-62
2024/04/23 01:10:55;;;;;;;42.10;24.70;;;;;;;;;;773529;179;815063;-61
2024/04/23 01:13:21;;;;;;;43.33;26.17;;;;;;;;;;772399;179;936139;-61
2024/04/23 01:15:47;;;;;;;40.00;23.00;;;;;;;;;;778477;178;912473;-61
2024/04/23 01:18:12;;;;;;;43.17;23.93;;;;;;;;;;771919;178;920004;-60
2024/04/23 01:20:38;;;;;;;41.90;26.30;;;;;;;;;;773190;179;816135;-61
2024/04/23 01:23:06;;;;;;;47.00;23.80;;;;;;;;;;774331;179;905504;-61
2024/04/23 01:25:31;;;;;;;37.67;22.87;;;;;;;;;;772940;177;816495;-60
2024/04/23 01:27:57;;;;;;;34.67;22.20;;;;;;;;;;777782;178;852764;-61
2024/04/23 01:30:23;;;;;;;38.07;22.43;;;;;;;;;;772341;179;915810;-61
2024/04/23 01:32:48;;;;;;;37.07;24.80;;;;;;;;;;781398;179;912041;-61
2024/04/23 01:35:14;;;;;;;34.17;22.20;;;;;;;;;;777881;178;816162;-60
2024/04/23 01:37:40;;;;;;;39.87;22.47;;;;;;;;;;776100;179;806559;-61
2024/04/23 01:40:07;;;;;;;39.20;22.93;;;;;;;;;;774433;179;794954;-62
2024/04/23 01:42:32;;;;;;;49.30;26.10;;;;;;;;;;778678;179;626759;-61
2024/04/23 01:44:58;;;;;;;50.93;25.97;;;;;;;;;;778935;179;713426;-61
2024/04/23 01:47:25;;;;;;;42.28;25.88;;;;;;;;;;777866;177;918873;-63
2024/04/23 01:49:51;;;;;;;38.10;22.70;;;;;;;;;;773502;179;816223;-62
2024/04/23 01:52:17;;;;;;;38.00;23.77;;;;;;;;;;770728;180;910823;-63
2024/04/23 01:54:42;;;;;;;43.87;24.10;;;;;;;;;;771968;179;894191;-63
2024/04/23 01:57:08;;;;;;;39.47;23.48;;;;;;;;;;780400;179;829366;-63
2024/04/23 01:59:34;;;;;;;39.50;24.73;;;;;;;;;;773290;179;919327;-63
2024/04/23 02:02:00;;;;;;;34.47;22.73;;;;;;;;;;774721;179;918085;-61
2024/04/23 02:04:26;;;;;;;51.70;25.63;;;;;;;;;;781224;177;916166;-63
2024/04/23 02:06:52;;;;;;;36.87;23.53;;;;;;;;;;777548;179;808980;-63
2024/04/23 02:09:17;;;;;;;37.97;24.65;;;;;;;;;;774454;179;917098;-62
2024/04/23 02:11:43;;;;;;;38.43;22.00;;;;;;;;;;780743;179;707305;-62
2024/04/23 02:14:09;;;;;;;34.53;24.03;;;;;;;;;;779402;179;633703;-63
2024/04/23 02:16:35;;;;;;;35.60;21.77;;;;;;;;;;774143;179;917808;-64
2024/04/23 02:19:01;;;;;;;41.47;23.40;;;;;;;;;;771218;179;917900;-63
2024/04/23 02:21:27;;;;;;;44.80;24.07;;;;;;;;;;772118;180;771336;-61
2024/04/23 02:23:53;;;;;;;40.03;22.57;;;;;;;;;;774808;179;944122;-61
2024/04/23 02:26:18;;;;;;;39.53;23.50;;;;;;;;;;773100;178;917685;-60
2024/04/23 02:28:44;;;;;;;45.80;26.23;;;;;;;;;;773638;179;815221;-61
2024/04/23 02:31:10;;;;;;;34.17;21.10;;;;;;;;;;775922;179;912251;-61
2024/04/23 02:33:36;;;;;;;44.37;24.53;;;;;;;;;;774197;177;914567;-61
2024/04/23 02:36:02;;;;;;;40.30;23.87;;;;;;;;;;778839;179;821465;-61
2024/04/23 02:38:28;;;;;;;40.60;22.70;;;;;;;;;;778953;177;820158;-62
2024/04/23 02:40:54;;;;;;;34.97;20.90;;;;;;;;;;777380;178;817238;-61
2024/04/23 02:43:19;;;;;;;47.87;27.03;;;;;;;;;;782383;177;625671;-62
2024/04/23 02:45:45;;;;;;;35.73;22.47;;;;;;;;;;774042;177;927565;-61
2024/04/23 02:48:11;;;;;;;39.70;25.40;;;;;;;;;;772513;177;915621;-61
2024/04/23 02:50:37;;;;;;;40.40;20.67;;;;;;;;;;772755;177;887560;-63
2024/04/23 02:53:03;;;;;;;37.13;23.30;;;;;;;;;;774567;179;709925;-63
2024/04/23 02:55:29;;;;;;;37.70;22.67;;;;;;;;;;774149;179;918968;-61
2024/04/23 02:57:54;;;;;;;44.83;22.17;;;;;;;;;;766349;179;918582;-62
2024/04/23 03:00:20;;;;;;;44.70;24.77;;;;;;;;;;779749;179;918745;-61
2024/04/23 03:02:46;;;;;;;41.37;23.10;;;;;;;;;;775933;179;817307;-61
2024/04/23 03:05:12;;;;;;;39.77;23.23;;;;;;;;;;774177;179;714400;-61
2024/04/23 03:07:38;;;;;;;31.97;20.30;;;;;;;;;;780017;179;749695;-61
2024/04/23 03:10:04;;;;;;;40.47;20.70;;;;;;;;;;778584;179;633607;-61
2024/04/23 03:15:01;;;;;;;40.70;24.57;;;;;;;;;;787653;172;917900;-63
2024/04/23 03:17:26;;;;;;;39.33;24.50;;;;;;;;;;762216;182;861558;-62
2024/04/23 03:19:52;;;;;;;36.60;22.20;;;;;;;;;;752219;185;891220;-63
2024/04/23 03:22:19;;;;;;;54.07;21.40;;;;;;;;;;764279;182;914570;-64
2024/04/23 03:24:44;;;;;;;30.10;19.60;;;;;;;;;;772747;183;938092;-63
2024/04/23 03:27:10;;;;;;;33.50;21.20;;;;;;;;;;767386;183;922462;-63
2024/04/23 03:29:36;;;;;;;36.20;20.33;;;;;;;;;;767077;183;818633;-63
2024/04/23 03:32:01;;;;;;;34.63;20.60;;;;;;;;;;762482;183;804118;-63
2024/04/23 03:39:58;;;;;;;39.13;24.52;;;;;;;;;;756812;181;817509;-64
2024/04/23 03:42:24;;;;;;;28.97;15.87;;;;;;;;;;747327;184;819848;-64
2024/04/23 03:44:50;;;;;;;35.43;23.60;;;;;;;;;;746293;184;914784;-63
2024/04/23 03:47:16;;;;;;;39.78;22.37;;;;;;;;;;748654;186;816792;-63
2024/04/23 03:49:42;;;;;;;36.90;22.33;;;;;;;;;;741339;184;917112;-62
2024/04/23 03:52:08;;;;;;;41.35;23.50;;;;;;;;;;740929;185;777756;-62
2024/04/23 03:54:33;;;;;;;36.73;22.37;;;;;;;;;;782315;177;821936;-63
2024/04/23 03:56:59;;;;;;;36.90;21.97;;;;;;;;;;779784;177;819161;-62
2024/04/23 03:59:25;;;;;;;45.70;23.43;;;;;;;;;;773683;177;628686;-63
2024/04/23 04:06:04;;;;;;;28.97;19.10;;;;;;;;;;780505;177;625989;-61
2024/04/23 04:06:50;;;;;;;39.20;21.80;;;;;;;;;;778359;177;917576;-64
2024/04/23 04:09:15;;;;;;;37.38;23.25;;;;;;;;;;776137;175;626418;-64
2024/04/23 04:11:41;;;;;;;33.57;21.63;;;;;;;;;;769583;181;626442;-63
2024/04/23 04:14:07;;;;;;;36.80;22.97;;;;;;;;;;772738;179;618101;-64
2024/04/23 04:16:33;;;;;;;33.77;20.87;;;;;;;;;;781945;178;613881;-61
2024/04/23 04:18:59;;;;;;;35.50;20.43;;;;;;;;;;786078;177;622449;-62
2024/04/23 04:21:25;;;;;;;39.53;23.47;;;;;;;;;;781718;177;663121;-62
2024/04/23 04:23:50;;;;;;;35.45;22.67;;;;;;;;;;783465;176;616145;-62
2024/04/23 04:26:16;;;;;;;36.30;21.20;;;;;;;;;;784116;177;816544;-62
2024/04/23 04:28:42;;;;;;;42.50;22.63;;;;;;;;;;780194;177;622641;-63
2024/04/23 04:31:08;;;;;;;40.47;21.67;;;;;;;;;;770217;176;640520;-62
2024/04/23 04:33:35;;;;;;;44.93;23.07;;;;;;;;;;780332;177;618028;-63
2024/04/23 04:36:00;;;;;;;34.73;22.20;;;;;;;;;;786286;178;622615;-62
2024/04/23 04:38:26;;;;;;;34.63;20.10;;;;;;;;;;781152;176;618015;-62
2024/04/23 04:40:52;;;;;;;28.30;20.13;;;;;;;;;;781921;177;628630;-62
2024/04/23 04:43:18;;;;;;;42.23;21.33;;;;;;;;;;785779;177;613684;-62
2024/04/23 04:45:45;;;;;;;30.70;18.70;;;;;;;;;;778328;177;920379;-62
2024/04/23 04:48:11;;;;;;;28.77;16.57;;;;;;;;;;783489;177;627910;-63
2024/04/23 04:50:37;;;;;;;40.07;21.80;;;;;;;;;;789617;176;626973;-63
2024/04/23 04:53:03;;;;;;;42.70;22.67;;;;;;;;;;786295;175;626291;-63
2024/04/23 04:55:30;;;;;;;42.03;22.27;;;;;;;;;;784129;175;618845;-62
2024/04/23 04:57:55;;;;;;;35.67;20.93;;;;;;;;;;784577;177;619010;-62
2024/04/23 05:00:21;;;;;;;25.03;15.03;;;;;;;;;;771291;181;616150;-62
2024/04/23 05:02:47;;;;;;;22.23;14.53;;;;;;;;;;781547;177;759620;-62
2024/04/23 05:05:13;;;;;;;38.63;21.83;;;;;;;;;;785241;176;617301;-63
2024/04/23 05:07:38;;;;;;;29.47;19.00;;;;;;;;;;788123;177;716225;-63
2024/04/23 05:10:05;;;;;;;34.40;20.40;;;;;;;;;;777767;177;917943;-62
2024/04/23 05:12:31;;;;;;;19.10;12.57;;;;;;;;;;778833;177;919077;-63
2024/04/23 05:14:57;;;;;;;31.30;22.63;;;;;;;;;;786319;177;770548;-63
2024/04/23 05:17:22;;;;;;;34.73;18.70;;;;;;;;;;779113;177;921924;-64
2024/04/23 05:19:48;;;;;;;37.33;21.15;;;;;;;;;;779337;177;918850;-64
2024/04/23 05:22:15;;;;;;;33.70;21.10;;;;;;;;;;778153;177;838153;-64
2024/04/23 05:24:41;;;;;;;31.45;19.15;;;;;;;;;;767781;180;920596;-65
2024/04/23 05:27:07;;;;;;;25.30;14.55;;;;;;;;;;771443;177;918654;-65
2024/04/23 05:29:33;;;;;;;27.00;16.73;;;;;;;;;;782054;176;816754;-64
2024/04/23 05:34:31;;;;;;;29.93;14.70;;;;;;;;;;757396;181;919986;-66
2024/04/23 05:36:57;;;;;;;32.50;17.63;;;;;;;;;;761013;181;815465;-65
2024/04/23 05:39:22;;;;;;;27.83;11.70;;;;;;;;;;780890;178;918371;-67
2024/04/23 05:41:48;;;;;;;27.00;18.55;;;;;;;;;;782111;176;922468;-66
2024/04/23 05:44:14;;;;;;;46.83;30.20;;;;;;;;;;782225;177;708019;-66
2024/04/23 05:46:40;;;;;;;38.17;21.00;;;;;;;;;;782512;178;916801;-66
2024/04/23 05:49:12;;;;;;;33.43;20.00;;;;;;;;;;779763;178;916560;-66
2024/04/23 05:51:43;;;;;;;24.37;16.27;;;;;;;;;;777421;177;843454;-67
2024/04/23 05:54:15;;;;;;;24.27;11.73;;;;;;;;;;778569;177;820231;-67
2024/04/23 05:56:41;;;;;;;32.72;20.65;;;;;;;;;;777578;176;918997;-68
2024/04/23 05:59:08;;;;;;;33.33;21.57;;;;;;;;;;783185;177;872605;-68
2024/04/23 06:01:34;;;;;;;25.43;14.10;;;;;;;;;;779472;175;820260;-68
2024/04/23 06:04:01;;;;;;;24.90;16.13;;;;;;;;;;779868;176;818230;-67
2024/04/23 06:06:27;;;;;;;25.43;17.50;;;;;;;;;;784120;176;805430;-67
2024/04/23 06:08:52;;;;;;;24.75;15.70;;;;;;;;;;780156;177;817691;-67
2024/04/23 06:11:18;;;;;;;35.20;18.23;;;;;;;;;;782743;175;790521;-67
2024/04/23 06:13:44;;;;;;;34.20;19.08;;;;;;;;;;782925;177;877118;-66
2024/04/23 06:16:10;;;;;;;37.30;22.40;;;;;;;;;;779444;174;919305;-67
2024/04/23 06:18:36;;;;;;;26.17;17.13;;;;;;;;;;765293;177;819241;-68
2024/04/23 06:21:02;;;;;;;29.33;18.90;;;;;;;;;;767098;180;819418;-67
2024/04/23 06:23:28;;;;;;;23.67;13.73;;;;;;;;;;771324;179;720328;-68
2024/04/23 06:25:55;;;;;;;25.77;15.00;;;;;;;;;;779917;176;917989;-66
2024/04/23 06:28:19;;;;;;;25.50;15.73;;;;;;;;;;778309;177;916951;-67
2024/04/23 06:30:46;;;;;;;29.53;18.43;;;;;;;;;;782754;177;934229;-66
2024/04/23 06:33:12;;;;;;;25.20;15.30;;;;;;;;;;778566;176;885301;-67
2024/04/23 06:35:40;;;;;;;26.90;16.60;;;;;;;;;;778155;175;856403;-67
2024/04/23 06:38:06;;;;;;;31.57;17.50;;;;;;;;;;783974;176;932765;-68
2024/04/23 06:40:32;;;;;;;28.40;16.23;;;;;;;;;;779550;176;812465;-68
2024/04/23 06:42:58;;;;;;;39.58;20.10;;;;;;;;;;778323;177;922763;-68
2024/04/23 06:45:24;;;;;;;23.83;13.23;;;;;;;;;;783188;175;918575;-68
2024/04/23 06:47:50;;;;;;;35.17;22.00;;;;;;;;;;758072;181;773655;-68
2024/04/23 06:50:15;;;;;;;34.90;19.70;;;;;;;;;;758534;180;917160;-68
2024/04/23 06:52:41;;;;;;;30.70;19.97;;;;;;;;;;773265;179;918766;-67
2024/04/23 06:55:07;;;;;;;32.50;17.50;;;;;;;;;;773255;178;815001;-67
2024/04/23 06:57:33;;;;;;;31.70;16.63;;;;;;;;;;777548;176;814676;-66
2024/04/23 06:59:59;;;;;;;30.63;18.57;;;;;;;;;;776544;176;916523;-69
2024/04/23 07:02:25;;;;;;;27.20;15.30;;;;;;;;;;786621;177;815787;-67
2024/04/23 07:04:50;;;;;;;21.80;14.18;;;;;;;;;;781540;177;917637;-66
2024/04/23 07:07:16;;;;;;;20.77;13.47;;;;;;;;;;779490;177;897520;-67
2024/04/23 07:09:42;;;;;;;25.10;14.77;;;;;;;;;;783039;177;918757;-69
2024/04/23 07:12:09;;;;;;;25.37;17.17;;;;;;;;;;778090;177;921705;-68
2024/04/23 07:14:35;;;;;;;25.37;13.43;;;;;;;;;;783329;176;716454;-68
2024/04/23 07:17:01;;;;;;;27.73;18.77;;;;;;;;;;787069;177;916119;-68
2024/04/23 07:19:28;;;;;;;20.40;12.67;;;;;;;;;;778071;177;921274;-68
2024/04/23 07:21:54;;;;;;;29.13;17.53;;;;;;;;;;777842;177;918759;-67
2024/04/23 07:24:20;;;;;;;19.93;12.13;;;;;;;;;;780967;177;823050;-67
2024/04/23 07:26:47;;;;;;;29.40;17.17;;;;;;;;;;785207;177;901726;-67
2024/04/23 07:29:11;;;;;;;35.23;24.17;;;;;;;;;;779429;177;933328;-66
2024/04/23 07:31:37;;;;;;;29.67;19.77;;;;;;;;;;757323;180;884302;-67
2024/04/23 07:34:03;;;;;;;27.27;15.30;;;;;;;;;;765640;180;924128;-66
2024/04/23 07:36:29;;;;;;;20.23;13.27;;;;;;;;;;763881;181;828914;-67
2024/04/23 07:38:55;;;;;;;27.33;17.27;;;;;;;;;;767894;180;869155;-67
2024/04/23 07:41:20;;;;;;;21.90;17.53;;;;;;;;;;772624;178;918845;-67
2024/04/23 07:43:46;;;;;;;26.07;16.33;;;;;;;;;;780565;176;836347;-67
2024/04/23 07:46:12;;;;;;;53.83;28.30;;;;;;;;;;781361;177;918731;-67
2024/04/23 07:48:38;;;;;;;34.30;19.53;;;;;;;;;;784080;177;882141;-67
2024/04/23 07:51:05;;;;;;;20.23;11.63;;;;;;;;;;781070;177;767527;-65
2024/04/23 07:53:32;;;;;;;27.07;15.57;;;;;;;;;;775996;177;914537;-67
2024/04/23 07:55:57;;;;;;;29.43;12.87;;;;;;;;;;780214;177;758379;-68
2024/04/23 07:58:23;;;;;;;27.50;17.80;;;;;;;;;;785453;177;627677;-68
2024/04/23 08:00:49;;;;;;;23.40;15.57;;;;;;;;;;778663;177;895701;-67
2024/04/23 08:03:15;;;;;;;21.67;14.43;;;;;;;;;;780890;177;879065;-67
2024/04/23 08:05:41;;;;;;;27.50;16.47;;;;;;;;;;785039;177;817057;-67
2024/04/23 08:08:07;;;;;;;25.53;17.10;;;;;;;;;;777937;177;918594;-67
2024/04/23 08:10:33;;;;;;;28.00;16.00;;;;;;;;;;780324;176;816492;-66
2024/04/23 08:12:58;;;;;;;27.53;17.90;;;;;;;;;;781803;178;786808;-67
2024/04/23 08:15:24;;;;;;;29.10;17.97;;;;;;;;;;777518;176;920774;-66
2024/04/23 08:17:51;;;;;;;21.40;11.10;;;;;;;;;;775694;177;811888;-66
2024/04/23 08:20:16;;;;;;;30.87;17.77;;;;;;;;;;784471;177;712831;-65
2024/04/23 08:22:42;;;;;;;30.23;15.80;;;;;;;;;;780091;177;939028;-65
2024/04/23 08:25:14;;;;;;;27.30;17.20;;;;;;;;;;780725;176;880292;-65
2024/04/23 08:27:37;;;;;;;32.70;18.37;;;;;;;;;;782071;175;713855;-67
2024/04/23 08:30:04;;;;;;;17.73;11.00;;;;;;;;;;786018;174;914862;-64
2024/04/23 08:32:30;;;;;;;29.03;16.23;;;;;;;;;;762921;179;942137;-66
2024/04/23 08:34:56;;;;;;;35.22;15.65;;;;;;;;;;778764;178;920093;-65
2024/04/23 08:37:22;;;;;;;35.83;18.67;;;;;;;;;;786027;177;613368;-66
2024/04/23 08:39:48;;;;;;;35.80;20.50;;;;;;;;;;778907;177;923008;-65
2024/04/23 08:42:14;;;;;;;30.17;18.00;;;;;;;;;;781453;177;773568;-65
2024/04/23 08:44:40;;;;;;;26.60;11.60;;;;;;;;;;786288;177;813587;-65
2024/04/23 08:47:06;;;;;;;34.40;19.70;;;;;;;;;;775851;179;750967;-65
2024/04/23 08:49:32;;;;;;;27.43;17.30;;;;;;;;;;761885;178;924866;-65
2024/04/23 08:51:58;;;;;;;24.73;16.57;;;;;;;;;;773805;176;790804;-65
2024/04/23 08:54:24;;;;;;;17.03;10.50;;;;;;;;;;784327;177;918841;-65
2024/04/23 08:56:50;;;;;;;24.00;12.93;;;;;;;;;;780130;176;819151;-65
2024/04/23 08:59:15;;;;;;;19.63;13.57;;;;;;;;;;778322;177;858186;-66
2024/04/23 09:01:41;;;;;;;23.37;14.57;;;;;;;;;;784384;176;904941;-66
2024/04/23 09:04:08;;;;;;;25.67;15.27;;;;;;;;;;780027;176;821841;-66
2024/04/23 09:06:36;;;;;;;26.50;15.67;;;;;;;;;;778091;178;818333;-64
2024/04/23 09:09:01;;;;;;;18.47;11.87;;;;;;;;;;787464;176;617072;-66
2024/04/23 09:11:27;;;;;;;25.33;15.07;;;;;;;;;;776899;177;917404;-67
2024/04/23 09:13:52;;;;;;;27.30;17.58;;;;;;;;;;779595;177;901025;-66
2024/04/23 09:16:18;;;;;;;28.10;14.73;;;;;;;;;;779713;177;818252;-67
2024/04/23 09:18:44;;;;;;;31.00;17.77;;;;;;;;;;760871;179;712470;-67
2024/04/23 09:21:10;;;;;;;29.50;16.30;;;;;;;;;;758596;181;917012;-66
2024/04/23 09:23:36;;;;;;;29.40;18.23;;;;;;;;;;758765;180;816618;-67
2024/04/23 09:26:02;;;;;;;29.20;19.30;;;;;;;;;;767881;181;917096;-67
2024/04/23 09:28:28;;;;;;;17.48;12.25;;;;;;;;;;773887;179;913330;-67
2024/04/23 09:30:53;;;;;;;22.77;14.80;;;;;;;;;;775881;177;818614;-67
2024/04/23 09:33:23;;;;;;;27.00;18.03;;;;;;;;;;785431;177;713071;-66
2024/04/23 09:35:54;;;;;;;18.27;11.20;;;;;;;;;;778903;176;918549;-68
2024/04/23 09:38:20;;;;;;;19.10;12.20;;;;;;;;;;779809;177;932060;-66
2024/04/23 09:40:46;;;;;;;31.43;18.20;;;;;;;;;;778053;175;916355;-67
2024/04/23 09:43:11;;;;;;;24.77;17.80;;;;;;;;;;786562;176;815173;-67
2024/04/23 09:45:37;;;;;;;27.10;18.90;;;;;;;;;;780159;177;912051;-68
2024/04/23 09:48:03;;;;;;;22.70;14.53;;;;;;;;;;777931;177;816473;-66
2024/04/23 09:50:29;;;;;;;29.40;15.67;;;;;;;;;;783501;176;712534;-66
2024/04/23 09:53:00;;;;;;;23.30;13.00;;;;;;;;;;775918;177;825853;-66
2024/04/23 09:55:25;;;;;;;23.60;13.93;;;;;;;;;;762846;179;918860;-67
2024/04/23 09:57:51;;;;;;;47.33;17.60;;;;;;;;;;761501;180;919601;-67
2024/04/23 10:00:17;;;;;;;28.10;16.90;;;;;;;;;;773359;180;687173;-67
2024/04/23 10:02:43;;;;;;;25.37;18.27;;;;;;;;;;763689;178;713737;-67
2024/04/23 10:05:09;;;;;;;23.70;12.70;;;;;;;;;;780891;177;709009;-67
2024/04/23 10:07:49;;;;;;;32.97;19.90;;;;;;;;;;786186;177;852782;-66
2024/04/23 10:10:15;;;;;;;28.60;14.00;;;;;;;;;;765694;181;848024;-67
2024/04/23 10:12:41;;;;;;;31.40;18.07;;;;;;;;;;771597;177;914244;-67
2024/04/23 10:15:19;;;;;;;35.83;19.03;;;;;;;;;;776483;176;921462;-67
2024/04/23 10:17:45;;;;;;;32.73;21.70;;;;;;;;;;776222;178;823468;-67
2024/04/23 10:20:11;;;;;;;26.53;16.47;;;;;;;;;;772199;181;916487;-67
2024/04/23 10:22:37;;;;;;;40.30;24.83;;;;;;;;;;775255;178;814664;-67
2024/04/23 10:25:04;;;;;;;22.97;14.70;;;;;;;;;;775356;177;853728;-67
2024/04/23 10:27:29;;;;;;;27.93;17.63;;;;;;;;;;786913;177;750730;-66
2024/04/23 10:29:55;;;;;;;32.57;19.33;;;;;;;;;;778659;176;920414;-66
2024/04/23 10:32:21;;;;;;;24.67;14.38;;;;;;;;;;781924;177;918240;-66
2024/04/23 10:34:46;;;;;;;15.77;9.80;;;;;;;;;;787186;176;663804;-67
2024/04/23 10:37:12;;;;;;;27.30;18.00;;;;;;;;;;779705;177;915230;-66
2024/04/23 10:39:38;;;;;;;30.40;18.90;;;;;;;;;;781899;177;654921;-67
2024/04/23 10:42:05;;;;;;;27.00;16.20;;;;;;;;;;786243;176;616494;-67
2024/04/23 10:44:30;;;;;;;31.20;18.43;;;;;;;;;;783031;176;612552;-66
2024/04/23 10:46:56;;;;;;;20.17;13.30;;;;;;;;;;780140;177;816271;-67
2024/04/23 10:49:22;;;;;;;26.50;16.43;;;;;;;;;;782091;175;887291;-68
2024/04/23 10:51:47;;;;;;;21.20;14.87;;;;;;;;;;769513;179;705299;-66
2024/04/23 10:54:14;;;;;;;31.00;16.30;;;;;;;;;;763248;179;809638;-66
2024/04/23 10:56:40;;;;;;;24.77;16.60;;;;;;;;;;779135;178;919405;-67
2024/04/23 10:59:10;;;;;;;22.87;13.23;;;;;;;;;;786731;177;712185;-67
2024/04/23 11:01:35;;;;;;;28.73;17.17;;;;;;;;;;782129;177;708513;-66
2024/04/23 11:04:02;;;;;;;20.33;13.17;;;;;;;;;;777685;177;815732;-67
2024/04/23 11:06:33;;;;;;;24.63;15.70;;;;;;;;;;786333;177;818359;-66
2024/04/23 11:08:58;;;;;;;29.00;16.00;;;;;;;;;;770928;180;809125;-67
2024/04/23 11:11:24;;;;;;;26.40;15.13;;;;;;;;;;768190;177;817599;-66
2024/04/23 11:13:50;;;;;;;16.87;10.50;;;;;;;;;;766282;179;919131;-65
2024/04/23 11:16:16;;;;;;;27.20;13.83;;;;;;;;;;783333;177;818534;-67
2024/04/23 11:18:42;;;;;;;23.13;16.13;;;;;;;;;;778306;177;810749;-66
2024/04/23 11:21:07;;;;;;;19.30;11.87;;;;;;;;;;776393;177;921989;-67
2024/04/23 11:23:33;;;;;;;23.63;14.80;;;;;;;;;;781721;177;817932;-67
2024/04/23 11:25:59;;;;;;;16.40;11.07;;;;;;;;;;777022;178;918715;-66
2024/04/23 11:28:25;;;;;;;26.20;16.90;;;;;;;;;;779473;176;919608;-67
2024/04/23 11:30:51;;;;;;;16.40;11.63;;;;;;;;;;786917;177;748322;-66
2024/04/23 11:33:17;;;;;;;17.27;13.70;;;;;;;;;;778098;177;917812;-67
2024/04/23 11:35:42;;;;;;;21.93;14.23;;;;;;;;;;781211;178;919366;-67
2024/04/23 11:38:08;;;;;;;13.73;8.47;;;;;;;;;;784184;177;719511;-66
2024/04/23 11:40:34;;;;;;;16.90;13.23;;;;;;;;;;781371;176;807355;-66
2024/04/23 11:43:00;;;;;;;19.70;10.90;;;;;;;;;;779357;176;821572;-66
2024/04/23 11:45:26;;;;;;;27.63;16.00;;;;;;;;;;778342;177;813206;-67
2024/04/23 11:47:55;;;;;;;20.35;13.98;;;;;;;;;;772464;180;613977;-67
2024/04/23 11:50:18;;;;;;;18.50;12.80;;;;;;;;;;774807;178;918753;-66
2024/04/23 11:52:43;;;;;;;15.37;11.30;;;;;;;;;;780511;179;633326;-67
2024/04/23 11:55:09;;;;;;;19.40;12.57;;;;;;;;;;787125;177;617712;-66
2024/04/23 11:57:36;;;;;;;22.37;15.57;;;;;;;;;;762227;181;855665;-66
2024/04/23 12:00:01;;;;;;;23.17;16.87;;;;;;;;;;766580;180;815797;-67
2024/04/23 12:02:27;;;;;;;24.10;15.73;;;;;;;;;;763856;180;708190;-67
2024/04/23 12:04:53;;;;;;;20.27;13.50;;;;;;;;;;780991;177;880582;-66
2024/04/23 12:07:19;;;;;;;17.30;11.32;;;;;;;;;;782773;177;922176;-66
2024/04/23 12:09:44;;;;;;;24.80;13.63;;;;;;;;;;787442;177;618925;-66
2024/04/23 12:12:10;;;;;;;16.87;11.17;;;;;;;;;;779208;177;916520;-66
2024/04/23 12:19:59;;;;;;;25.80;14.67;;;;;;;;;;787373;173;812272;-64
2024/04/23 12:22:25;;;;;;;17.83;12.47;;;;;;;;;;770195;179;862718;-65
2024/04/23 12:24:50;;;;;;;12.57;9.20;;;;;;;;;;778311;179;716245;-66
2024/04/23 12:27:17;;;;;;;28.33;16.67;;;;;;;;;;775231;179;915887;-65
2024/04/23 12:29:42;;;;;;;18.77;11.90;;;;;;;;;;774506;179;714325;-64
2024/04/23 12:32:08;;;;;;;20.00;13.37;;;;;;;;;;776128;179;713916;-65
2024/04/23 12:34:34;;;;;;;23.67;11.70;;;;;;;;;;778898;179;613744;-67
2024/04/23 12:37:00;;;;;;;19.45;10.85;;;;;;;;;;772698;179;920072;-66
2024/04/23 12:39:26;;;;;;;19.90;12.90;;;;;;;;;;777013;180;919404;-65
2024/04/23 12:41:51;;;;;;;25.70;15.23;;;;;;;;;;777880;179;763550;-65
2024/04/23 12:44:17;;;;;;;15.17;11.67;;;;;;;;;;774238;180;795822;-66
2024/04/23 12:46:43;;;;;;;26.63;13.30;;;;;;;;;;778640;179;715058;-65
2024/04/23 12:49:09;;;;;;;24.93;13.80;;;;;;;;;;776214;179;718531;-65
2024/04/23 12:51:35;;;;;;;19.03;13.60;;;;;;;;;;778130;177;632638;-66
2024/04/23 12:54:00;;;;;;;22.30;15.30;;;;;;;;;;777876;179;713156;-65
2024/04/23 12:56:28;;;;;;;27.70;17.50;;;;;;;;;;773233;180;818684;-65
2024/04/23 12:58:55;;;;;;;23.03;14.20;;;;;;;;;;770484;180;820727;-65
2024/04/23 13:01:22;;;;;;;27.00;16.43;;;;;;;;;;771428;180;712655;-65
2024/04/23 13:03:48;;;;;;;22.03;11.10;;;;;;;;;;780071;180;796229;-66
2024/04/23 13:06:13;;;;;;;20.73;13.95;;;;;;;;;;775160;179;822643;-65
2024/04/23 13:08:39;;;;;;;24.70;14.70;;;;;;;;;;768352;180;919767;-66
2024/04/23 13:11:05;;;;;;;15.13;9.80;;;;;;;;;;776445;180;816614;-65
2024/04/23 13:13:31;;;;;;;19.33;11.80;;;;;;;;;;773881;179;921108;-65
2024/04/23 13:15:57;;;;;;;23.13;13.83;;;;;;;;;;765383;180;1567712;-65
2024/04/23 13:18:23;;;;;;;25.53;14.73;;;;;;;;;;774721;179;936491;-65
2024/04/23 13:20:48;;;;;;;22.17;13.70;;;;;;;;;;773339;180;822357;-66
2024/04/23 13:23:14;;;;;;;23.90;16.73;;;;;;;;;;775680;179;917364;-64
2024/04/23 13:25:42;;;;;;;29.47;16.77;;;;;;;;;;781133;180;622520;-64
2024/04/23 13:28:06;;;;;;;23.23;13.83;;;;;;;;;;773910;179;822216;-65
2024/04/23 13:30:32;;;;;;;19.40;13.33;;;;;;;;;;776318;178;819771;-65
2024/04/23 13:32:58;;;;;;;18.10;12.50;;;;;;;;;;774777;179;911974;-65
2024/04/23 13:35:24;;;;;;;15.43;10.40;;;;;;;;;;775571;179;916891;-65
2024/04/23 13:37:50;;;;;;;17.90;12.48;;;;;;;;;;770265;179;815164;-65
2024/04/23 13:40:16;;;;;;;20.00;11.93;;;;;;;;;;774785;180;777395;-66
2024/04/23 13:42:42;;;;;;;24.80;16.40;;;;;;;;;;776969;180;839267;-67
2024/04/23 13:45:08;;;;;;;25.33;14.97;;;;;;;;;;774626;179;917102;-66
2024/04/23 13:47:36;;;;;;;23.73;13.10;;;;;;;;;;772243;180;871279;-65
2024/04/23 13:50:00;;;;;;;25.03;16.90;;;;;;;;;;779127;179;783544;-65
2024/04/23 13:52:26;;;;;;;15.07;10.87;;;;;;;;;;774572;180;752387;-64
2024/04/23 13:54:52;;;;;;;21.00;14.07;;;;;;;;;;774046;180;922556;-65
2024/04/23 13:57:18;;;;;;;22.07;14.10;;;;;;;;;;780608;180;716446;-65
2024/04/23 13:59:43;;;;;;;22.87;13.73;;;;;;;;;;775977;180;750774;-66
2024/04/23 14:02:09;;;;;;;23.23;14.97;;;;;;;;;;770479;179;883546;-66
2024/04/23 14:04:35;;;;;;;18.10;12.20;;;;;;;;;;768306;179;815621;-66
2024/04/23 14:07:01;;;;;;;24.07;13.50;;;;;;;;;;777906;179;822314;-65
2024/04/23 14:09:27;;;;;;;23.40;14.97;;;;;;;;;;774068;180;832469;-66
2024/04/23 14:11:53;;;;;;;39.23;20.53;;;;;;;;;;774433;179;633609;-65
2024/04/23 14:14:18;;;;;;;31.60;16.50;;;;;;;;;;777619;180;814484;-64
2024/04/23 14:16:44;;;;;;;35.87;17.77;;;;;;;;;;769780;177;946152;-66